MacDowall, Canada
Current Conditions -  °F | °C
As of 10:00 AM on Friday 24 Oct 2014 (Local Time) from CYPA Reporting Station
Broken Clouds Broken Clouds  
Wind Chill: 35°   Ceiling: 25000
Heat Index: 43°   Visibility: 15mi
Dew Point: 36°   Wind: 16mph
Humidity: 76%   Direction: 290°WNW
Pressure: 29.62"   Gusts: 25mph
Location:  53.02°N, 106.01°W
Report Text: CYPA 241600Z 29014G22KT 15SM FEW025 SCT120 BKN250 06/02 A2962 RMK SC2AC1CI2 SLP048
Loading
Personal Weather Stations






























Interactive Weather Map
Tropical Storm Tracking
New forecast layout! Learn more

10-Day Weather Forecast

Advertisements
Track Severe Weather on mobile